Waukena, California
Current Conditions -  °F | °C
As of 4:55 PM on Monday 26 Jan 2015 (Local Time) from KVIS Reporting Station
Overcast Overcast  
Wind Chill: 54°   Ceiling: 11000
Heat Index: 54°   Visibility: 4mi
Dew Point: 46°   Wind: 6mph
Humidity: 77%   Direction: 260°W
Pressure: 30.01"   Gusts: NA
Location:  36.14°N, 119.51°W
Report Text: KVIS 270055Z AUTO 26005KT 4SM OVC110 12/08 A3001 RMK AO1
Loading
Personal Weather Stations






























Interactive Weather Map New forecast layout! Learn more

10-Day Weather Forecast

Advertisements
Track Severe Weather on mobile